createdAt,value
2023-03-23T15:59:56.814Z,94844.78
2023-03-23T16:02:23.303Z,94848.66
2023-03-23T16:04:49.612Z,94843.91
2023-03-23T16:07:16.040Z,94847.08
2023-03-23T16:09:42.401Z,94845.78
2023-03-23T16:12:08.838Z,94850.89
2023-03-23T16:14:35.182Z,94847.48
2023-03-23T16:17:01.668Z,94847.60
2023-03-23T16:19:27.940Z,94851.39
2023-03-23T16:21:54.409Z,94849.86
2023-03-23T16:24:20.768Z,94852.36
2023-03-23T16:26:47.153Z,94851.80
2023-03-23T16:29:20.456Z,94861.10
2023-03-23T16:31:39.920Z,94856.00
2023-03-23T16:34:06.430Z,94851.89
2023-03-23T16:36:32.805Z,94851.16
2023-03-23T16:38:59.135Z,94849.98
2023-03-23T16:41:25.523Z,94858.91
2023-03-23T16:43:51.853Z,94854.59
2023-03-23T16:46:18.297Z,94856.41
2023-03-23T16:48:44.646Z,94856.52
2023-03-23T16:51:10.990Z,94859.61
2023-03-23T16:53:37.424Z,94864.56
2023-03-23T16:56:03.761Z,94862.25
2023-03-23T16:58:30.144Z,94859.75
2023-03-23T17:00:56.529Z,94853.97
2023-03-23T17:03:23.013Z,94861.30
2023-03-23T17:05:49.290Z,94858.73
2023-03-23T17:08:15.640Z,94861.69
2023-03-23T17:10:41.979Z,94864.80
2023-03-23T17:13:08.414Z,94866.17
2023-03-23T17:15:34.787Z,94864.69
2023-03-23T17:18:01.192Z,94874.20
2023-03-23T17:20:27.523Z,94879.73
2023-03-23T17:22:53.900Z,94882.66
2023-03-23T17:25:20.248Z,94883.95
2023-03-23T17:27:46.625Z,94879.98
2023-03-23T17:30:12.982Z,94880.66
2023-03-23T17:32:39.405Z,94889.84
2023-03-23T17:35:05.730Z,94885.92
2023-03-23T17:37:34.263Z,94890.88
2023-03-23T17:39:58.484Z,94890.20
2023-03-23T17:42:24.856Z,94894.86
2023-03-23T17:44:51.211Z,94903.89
2023-03-23T17:47:17.585Z,94896.15
2023-03-23T17:49:44.039Z,94911.52
2023-03-23T17:52:10.420Z,94901.66
2023-03-23T17:54:36.776Z,94899.86
2023-03-23T17:57:03.227Z,94905.68
2023-03-23T17:59:29.944Z,94908.11
2023-03-23T18:01:56.347Z,94914.45
2023-03-23T18:04:22.661Z,94918.18
2023-03-23T18:06:49.039Z,94918.18
2023-03-23T18:09:15.372Z,94933.67
2023-03-23T18:11:41.770Z,94919.98
2023-03-23T18:14:08.099Z,94937.78
2023-03-23T18:16:34.532Z,94938.61
2023-03-23T18:19:00.844Z,94940.63
2023-03-23T18:21:27.214Z,94941.91
2023-03-23T18:23:59.154Z,94946.81
2023-03-23T18:26:19.925Z,94948.11
2023-03-23T18:28:47.267Z,94961.02
2023-03-23T18:31:13.725Z,94964.06
2023-03-23T18:33:40.029Z,94966.17
2023-03-23T18:36:06.391Z,94957.98
2023-03-23T18:38:32.719Z,94950.23
2023-03-23T18:40:59.099Z,94953.17
2023-03-23T18:43:25.439Z,94954.56
2023-03-23T18:45:51.861Z,94950.08
2023-03-23T18:48:18.194Z,94950.38
2023-03-23T18:50:44.749Z,94951.41
2023-03-23T18:53:10.993Z,94962.00
2023-03-23T18:55:39.093Z,94965.66
2023-03-23T18:58:03.713Z,94967.06
2023-03-23T19:00:30.101Z,94965.52
2023-03-23T19:02:56.471Z,94964.48
2023-03-23T19:05:22.894Z,94969.43
2023-03-23T19:07:49.262Z,94970.51
2023-03-23T19:10:15.665Z,94969.55
2023-03-23T19:12:42.042Z,94970.02
2023-03-23T19:15:08.433Z,94970.51
2023-03-23T19:17:34.871Z,94972.38
2023-03-23T19:20:02.198Z,94971.44
2023-03-23T19:22:27.590Z,94976.61
2023-03-23T19:24:53.979Z,94967.62
2023-03-23T19:27:20.982Z,94979.09
2023-03-23T19:29:46.714Z,94984.39
2023-03-23T19:32:13.067Z,94978.47
2023-03-23T19:34:39.585Z,94980.13
2023-03-23T19:37:10.225Z,94990.66
2023-03-23T19:39:32.248Z,94995.61
2023-03-23T19:41:58.582Z,95002.88
2023-03-23T19:44:25.359Z,95015.17
2023-03-23T19:46:51.322Z,95015.42
2023-03-23T19:49:17.883Z,95015.58
2023-03-23T19:51:44.022Z,95015.58
2023-03-23T19:54:10.431Z,95027.77
2023-03-23T19:56:36.846Z,95027.77
2023-03-23T19:59:03.161Z,95026.15
2023-03-23T20:01:29.607Z,95031.88
2023-03-23T20:03:59.271Z,95032.84
2023-03-23T20:06:22.404Z,95042.70
2023-03-23T20:08:48.792Z,95044.22
2023-03-23T20:11:15.052Z,95042.59
2023-03-23T20:13:41.416Z,95038.52
2023-03-23T20:16:07.770Z,95052.92
2023-03-23T20:18:34.237Z,95052.20
2023-03-23T20:21:00.494Z,95036.97
2023-03-23T20:23:26.873Z,95040.63
2023-03-23T20:25:53.726Z,95042.13
2023-03-23T20:28:19.668Z,95027.37
2023-03-23T20:30:45.989Z,95036.37
2023-03-23T20:33:12.453Z,95036.37
2023-03-23T20:35:38.844Z,95041.80
2023-03-23T20:38:05.126Z,95023.39
2023-03-23T20:40:31.486Z,95035.22
2023-03-23T20:42:57.954Z,95035.00
2023-03-23T20:45:24.311Z,95037.22
2023-03-23T20:47:50.796Z,95035.58
2023-03-23T20:50:17.043Z,95031.59
2023-03-23T20:52:43.420Z,95036.86
2023-03-23T20:55:09.756Z,95035.72
2023-03-23T20:57:36.159Z,95035.72
2023-03-23T21:00:02.511Z,95029.84
2023-03-23T21:02:28.906Z,95009.70
2023-03-23T21:04:55.270Z,95031.73
2023-03-23T21:07:21.601Z,95024.60
2023-03-23T21:09:49.178Z,95031.73
2023-03-23T21:12:14.344Z,95015.50
2023-03-23T21:14:40.735Z,95024.74
2023-03-23T21:17:07.113Z,95034.20
2023-03-23T21:19:33.616Z,95009.30
2023-03-23T21:22:00.155Z,95009.30
2023-03-23T21:24:26.561Z,95007.68
2023-03-23T21:26:52.865Z,95011.30
2023-03-23T21:29:19.212Z,95021.94
2023-03-23T21:31:47.241Z,95021.94
2023-03-23T21:34:11.959Z,95040.33
2023-03-23T21:36:38.331Z,95038.10
2023-03-23T21:39:04.681Z,95042.91
2023-03-23T21:41:31.057Z,95041.75
2023-03-23T21:43:57.398Z,95027.81
2023-03-23T21:46:23.842Z,95037.99
2023-03-23T21:48:50.192Z,95040.24
2023-03-23T21:51:16.570Z,95032.15
2023-03-23T21:53:42.919Z,95034.37
2023-03-23T21:56:09.313Z,95020.90
2023-03-23T21:58:35.699Z,95030.64
2023-03-23T22:01:02.096Z,95013.30
2023-03-23T22:03:28.420Z,95032.17
2023-03-23T22:05:54.861Z,95032.17
2023-03-23T22:08:21.136Z,95018.95
2023-03-23T22:11:00.740Z,95032.28
2023-03-23T22:13:14.183Z,95035.80
2023-03-23T22:15:40.630Z,95028.31
2023-03-23T22:18:07.102Z,95034.04
2023-03-23T22:20:34.658Z,95028.66
2023-03-23T22:23:00.025Z,95032.99
2023-03-23T22:25:26.507Z,95032.53
2023-03-23T22:27:52.940Z,95032.17
2023-03-23T22:30:19.420Z,95030.20
2023-03-23T22:32:45.881Z,95030.20
2023-03-23T22:35:12.255Z,95032.31
2023-03-23T22:37:38.669Z,95031.02
2023-03-23T22:40:05.141Z,95040.61
2023-03-23T22:42:31.508Z,95042.04
2023-03-23T22:44:57.909Z,95042.04
2023-03-23T22:47:24.342Z,95039.83
2023-03-23T22:49:50.705Z,95042.04
2023-03-23T22:52:17.088Z,95044.27
2023-03-23T22:54:43.499Z,95045.19
2023-03-23T22:57:09.895Z,95043.57
2023-03-23T22:59:36.287Z,95043.57
2023-03-23T23:02:02.660Z,95054.34
2023-03-23T23:04:29.140Z,95054.34
2023-03-23T23:07:03.225Z,95054.81
2023-03-23T23:09:21.838Z,95054.45
2023-03-23T23:11:48.223Z,95050.59
2023-03-23T23:14:14.637Z,95043.81
2023-03-23T23:16:41.045Z,95052.84
2023-03-23T23:19:07.470Z,95046.50
2023-03-23T23:21:33.863Z,95046.50
2023-03-23T23:24:00.282Z,95046.28
2023-03-23T23:26:26.669Z,95046.74
2023-03-23T23:28:53.123Z,95046.74
2023-03-23T23:31:19.549Z,95044.63
2023-03-23T23:33:45.914Z,95035.38
2023-03-23T23:36:12.322Z,95028.60
2023-03-23T23:38:38.762Z,95028.60
2023-03-23T23:41:05.124Z,95045.34
2023-03-23T23:43:31.598Z,95015.59
2023-03-23T23:45:57.987Z,95015.59
2023-03-23T23:48:24.414Z,95030.83
2023-03-23T23:50:50.794Z,95028.25
2023-03-23T23:53:17.228Z,95013.25
2023-03-23T23:55:43.649Z,95012.53
2023-03-23T23:58:10.038Z,95013.14
